sensor_id;sensor_type;location;lat;lon;timestamp;pressure;altitude;pressure_sealevel;temperature;humidity
74722;BME280;63470;49.826;6.740;2023-04-24T00:01:17;98959.00;;;11.14;60.31
74722;BME280;63470;49.826;6.740;2023-04-24T00:03:47;98962.70;;;11.14;60.33
74722;BME280;63470;49.826;6.740;2023-04-24T00:06:17;98966.28;;;11.13;60.32
74722;BME280;63470;49.826;6.740;2023-04-24T00:08:48;98968.08;;;11.12;60.38
74722;BME280;63470;49.826;6.740;2023-04-24T00:11:18;98968.34;;;11.11;60.40
74722;BME280;63470;49.826;6.740;2023-04-24T00:13:49;98970.11;;;11.11;60.41
74722;BME280;63470;49.826;6.740;2023-04-24T00:16:19;98967.84;;;11.11;60.42
74722;BME280;63470;49.826;6.740;2023-04-24T00:18:50;98957.19;;;11.11;60.40
74722;BME280;63470;49.826;6.740;2023-04-24T00:21:22;98958.31;;;11.11;60.41
74722;BME280;63470;49.826;6.740;2023-04-24T00:23:50;98953.28;;;11.10;60.39
74722;BME280;63470;49.826;6.740;2023-04-24T00:26:21;98950.80;;;11.11;60.35
74722;BME280;63470;49.826;6.740;2023-04-24T00:28:51;98952.73;;;11.10;60.36
74722;BME280;63470;49.826;6.740;2023-04-24T00:31:21;98957.81;;;11.09;60.44
74722;BME280;63470;49.826;6.740;2023-04-24T00:33:52;98965.82;;;11.09;60.44
74722;BME280;63470;49.826;6.740;2023-04-24T00:36:22;98972.34;;;11.09;60.47
74722;BME280;63470;49.826;6.740;2023-04-24T00:38:53;98970.97;;;11.09;60.45
74722;BME280;63470;49.826;6.740;2023-04-24T00:41:26;98966.77;;;11.10;60.44
74722;BME280;63470;49.826;6.740;2023-04-24T00:43:53;98974.10;;;11.10;60.46
74722;BME280;63470;49.826;6.740;2023-04-24T00:46:26;98978.38;;;11.15;60.92
74722;BME280;63470;49.826;6.740;2023-04-24T00:48:56;98982.45;;;11.27;61.13
74722;BME280;63470;49.826;6.740;2023-04-24T00:51:25;98980.84;;;11.31;60.61
74722;BME280;63470;49.826;6.740;2023-04-24T00:53:56;98983.14;;;11.30;60.35
74722;BME280;63470;49.826;6.740;2023-04-24T00:56:26;98978.62;;;11.27;60.21
74722;BME280;63470;49.826;6.740;2023-04-24T00:58:57;98986.61;;;11.23;60.17
74722;BME280;63470;49.826;6.740;2023-04-24T01:01:28;98988.02;;;11.21;60.17
74722;BME280;63470;49.826;6.740;2023-04-24T01:03:58;98984.55;;;11.19;60.17
74722;BME280;63470;49.826;6.740;2023-04-24T01:06:29;98982.21;;;11.18;60.15
74722;BME280;63470;49.826;6.740;2023-04-24T01:09:01;98980.97;;;11.16;60.14
74722;BME280;63470;49.826;6.740;2023-04-24T01:11:31;98987.57;;;11.14;60.18
74722;BME280;63470;49.826;6.740;2023-04-24T01:14:01;98984.91;;;11.10;60.21
74722;BME280;63470;49.826;6.740;2023-04-24T01:16:32;98983.11;;;11.07;60.26
74722;BME280;63470;49.826;6.740;2023-04-24T01:19:02;98981.91;;;11.05;60.28
74722;BME280;63470;49.826;6.740;2023-04-24T01:21:36;98989.37;;;11.01;60.32
74722;BME280;63470;49.826;6.740;2023-04-24T01:24:04;98988.86;;;10.97;60.35
74722;BME280;63470;49.826;6.740;2023-04-24T01:26:34;98981.50;;;10.93;60.45
74722;BME280;63470;49.826;6.740;2023-04-24T01:29:04;98984.34;;;10.88;60.56
74722;BME280;63470;49.826;6.740;2023-04-24T01:31:35;98984.75;;;10.84;60.63
74722;BME280;63470;49.826;6.740;2023-04-24T01:34:06;98986.48;;;10.79;60.70
74722;BME280;63470;49.826;6.740;2023-04-24T01:36:36;98985.20;;;10.74;60.75
74722;BME280;63470;49.826;6.740;2023-04-24T01:39:06;98986.56;;;10.64;60.83
74722;BME280;63470;49.826;6.740;2023-04-24T01:41:36;98985.50;;;10.47;60.95
74722;BME280;63470;49.826;6.740;2023-04-24T01:44:07;98989.68;;;10.27;61.16
74722;BME280;63470;49.826;6.740;2023-04-24T01:46:38;98989.08;;;10.06;61.36
74722;BME280;63470;49.826;6.740;2023-04-24T01:49:08;98994.62;;;9.82;61.56
74722;BME280;63470;49.826;6.740;2023-04-24T01:51:39;98997.27;;;9.61;61.81
74722;BME280;63470;49.826;6.740;2023-04-24T01:54:09;98995.69;;;9.47;61.84
74722;BME280;63470;49.826;6.740;2023-04-24T01:56:50;99007.38;;;9.36;61.86
74722;BME280;63470;49.826;6.740;2023-04-24T01:59:12;99012.44;;;9.25;61.91
74722;BME280;63470;49.826;6.740;2023-04-24T02:01:41;99026.15;;;9.20;61.93
74722;BME280;63470;49.826;6.740;2023-04-24T02:04:12;99032.61;;;9.24;61.88
74722;BME280;63470;49.826;6.740;2023-04-24T02:06:42;99039.06;;;9.37;61.66
74722;BME280;63470;49.826;6.740;2023-04-24T02:09:13;99040.69;;;9.48;61.47
74722;BME280;63470;49.826;6.740;2023-04-24T02:11:43;99048.77;;;9.58;61.39
74722;BME280;63470;49.826;6.740;2023-04-24T02:14:14;99042.33;;;9.67;61.29
74722;BME280;63470;49.826;6.740;2023-04-24T02:16:44;99049.63;;;9.73;61.23
74722;BME280;63470;49.826;6.740;2023-04-24T02:19:15;99049.16;;;9.78;61.17
74722;BME280;63470;49.826;6.740;2023-04-24T02:21:45;99050.38;;;9.80;61.11
74722;BME280;63470;49.826;6.740;2023-04-24T02:26:52;99063.62;;;9.86;60.67
74722;BME280;63470;49.826;6.740;2023-04-24T02:29:25;99074.72;;;9.77;60.52
74722;BME280;63470;49.826;6.740;2023-04-24T02:31:53;99077.53;;;9.63;60.58
74722;BME280;63470;49.826;6.740;2023-04-24T02:34:23;99075.76;;;9.48;60.66
74722;BME280;63470;49.826;6.740;2023-04-24T02:36:51;99070.99;;;9.35;60.66
74722;BME280;63470;49.826;6.740;2023-04-24T02:39:19;99064.70;;;9.16;60.76
74722;BME280;63470;49.826;6.740;2023-04-24T02:42:03;99072.96;;;8.92;61.00
74722;BME280;63470;49.826;6.740;2023-04-24T02:44:28;99077.67;;;8.70;61.30
74722;BME280;63470;49.826;6.740;2023-04-24T02:46:51;99072.62;;;8.56;61.45
74722;BME280;63470;49.826;6.740;2023-04-24T02:49:24;99079.41;;;8.52;61.20
74722;BME280;63470;49.826;6.740;2023-04-24T02:51:59;99081.98;;;8.40;61.26
74722;BME280;63470;49.826;6.740;2023-04-24T02:54:33;99089.52;;;8.29;61.29
74722;BME280;63470;49.826;6.740;2023-04-24T02:56:53;99093.42;;;8.23;61.31
74722;BME280;63470;49.826;6.740;2023-04-24T02:59:28;99098.98;;;8.18;61.33
74722;BME280;63470;49.826;6.740;2023-04-24T03:01:57;99096.31;;;8.18;61.24
74722;BME280;63470;49.826;6.740;2023-04-24T03:04:30;99096.45;;;8.17;61.14
74722;BME280;63470;49.826;6.740;2023-04-24T03:07:01;99101.88;;;8.16;61.18
74722;BME280;63470;49.826;6.740;2023-04-24T03:09:26;99097.55;;;8.18;61.15
74722;BME280;63470;49.826;6.740;2023-04-24T03:12:03;99104.72;;;8.11;61.21
74722;BME280;63470;49.826;6.740;2023-04-24T03:14:32;99106.77;;;8.05;61.31
74722;BME280;63470;49.826;6.740;2023-04-24T03:17:02;99112.91;;;8.09;61.31
74722;BME280;63470;49.826;6.740;2023-04-24T03:19:28;99113.84;;;8.21;61.20
74722;BME280;63470;49.826;6.740;2023-04-24T03:21:58;99117.78;;;8.39;60.98
74722;BME280;63470;49.826;6.740;2023-04-24T03:24:29;99120.38;;;8.54;60.78
74722;BME280;63470;49.826;6.740;2023-04-24T03:27:00;99119.94;;;8.67;60.62
74722;BME280;63470;49.826;6.740;2023-04-24T03:29:30;99122.62;;;8.78;60.50
74722;BME280;63470;49.826;6.740;2023-04-24T03:32:01;99118.61;;;8.86;60.42
74722;BME280;63470;49.826;6.740;2023-04-24T03:34:31;99120.93;;;8.91;60.38
74722;BME280;63470;49.826;6.740;2023-04-24T03:37:11;99118.23;;;8.94;60.37
74722;BME280;63470;49.826;6.740;2023-04-24T03:39:32;99113.53;;;8.97;60.35
74722;BME280;63470;49.826;6.740;2023-04-24T03:42:03;99114.61;;;9.00;60.33
74722;BME280;63470;49.826;6.740;2023-04-24T03:44:33;99115.06;;;9.01;60.37
74722;BME280;63470;49.826;6.740;2023-04-24T03:47:03;99120.39;;;9.02;60.39
74722;BME280;63470;49.826;6.740;2023-04-24T03:49:34;99120.13;;;9.05;60.34
74722;BME280;63470;49.826;6.740;2023-04-24T03:52:04;99124.67;;;9.08;60.33
74722;BME280;63470;49.826;6.740;2023-04-24T03:54:35;99120.95;;;9.12;60.31
74722;BME280;63470;49.826;6.740;2023-04-24T03:57:06;99124.46;;;9.15;60.28
74722;BME280;63470;49.826;6.740;2023-04-24T03:59:39;99132.38;;;9.18;60.27
74722;BME280;63470;49.826;6.740;2023-04-24T04:02:13;99130.52;;;9.23;60.21
74722;BME280;63470;49.826;6.740;2023-04-24T04:04:38;99115.00;;;9.24;60.16
74722;BME280;63470;49.826;6.740;2023-04-24T04:07:11;99117.84;;;9.19;60.20
74722;BME280;63470;49.826;6.740;2023-04-24T04:09:42;99120.89;;;9.14;60.29
74722;BME280;63470;49.826;6.740;2023-04-24T04:12:09;99123.08;;;9.12;60.31
74722;BME280;63470;49.826;6.740;2023-04-24T04:14:40;99116.73;;;9.12;60.27
74722;BME280;63470;49.826;6.740;2023-04-24T04:17:10;99118.06;;;9.12;60.24
74722;BME280;63470;49.826;6.740;2023-04-24T04:19:41;99118.74;;;9.09;60.28
74722;BME280;63470;49.826;6.740;2023-04-24T04:22:11;99127.02;;;9.03;60.41
74722;BME280;63470;49.826;6.740;2023-04-24T04:24:42;99127.23;;;9.01;60.50
74722;BME280;63470;49.826;6.740;2023-04-24T04:27:13;99131.66;;;9.03;60.49
74722;BME280;63470;49.826;6.740;2023-04-24T04:29:44;99135.89;;;9.05;60.46
74722;BME280;63470;49.826;6.740;2023-04-24T04:32:13;99134.28;;;9.05;60.47
74722;BME280;63470;49.826;6.740;2023-04-24T04:34:46;99137.75;;;9.08;60.44
74722;BME280;63470;49.826;6.740;2023-04-24T04:37:17;99138.22;;;9.12;60.41
74722;BME280;63470;49.826;6.740;2023-04-24T04:39:45;99141.66;;;9.15;60.36
74722;BME280;63470;49.826;6.740;2023-04-24T04:42:16;99149.00;;;9.18;60.32
74722;BME280;63470;49.826;6.740;2023-04-24T04:44:46;99151.82;;;9.20;60.34
74722;BME280;63470;49.826;6.740;2023-04-24T04:47:20;99152.66;;;9.23;60.33
74722;BME280;63470;49.826;6.740;2023-04-24T04:49:51;99158.98;;;9.25;60.32
74722;BME280;63470;49.826;6.740;2023-04-24T04:52:21;99158.41;;;9.26;60.32
74722;BME280;63470;49.826;6.740;2023-04-24T04:54:48;99161.55;;;9.25;60.33
74722;BME280;63470;49.826;6.740;2023-04-24T04:57:19;99163.94;;;9.23;60.36
74722;BME280;63470;49.826;6.740;2023-04-24T04:59:49;99164.78;;;9.22;60.37
74722;BME280;63470;49.826;6.740;2023-04-24T05:02:20;99167.62;;;9.21;60.38
74722;BME280;63470;49.826;6.740;2023-04-24T05:04:50;99168.85;;;9.21;60.41
74722;BME280;63470;49.826;6.740;2023-04-24T05:07:22;99171.69;;;9.22;60.44
74722;BME280;63470;49.826;6.740;2023-04-24T05:09:53;99174.26;;;9.25;60.42
74722;BME280;63470;49.826;6.740;2023-04-24T05:12:22;99177.82;;;9.27;60.44
74722;BME280;63470;49.826;6.740;2023-04-24T05:14:53;99182.08;;;9.30;60.42
74722;BME280;63470;49.826;6.740;2023-04-24T05:17:23;99187.73;;;9.35;60.42
74722;BME280;63470;49.826;6.740;2023-04-24T05:19:53;99196.09;;;9.39;60.40
74722;BME280;63470;49.826;6.740;2023-04-24T05:22:24;99200.12;;;9.45;60.36
74722;BME280;63470;49.826;6.740;2023-04-24T05:24:55;99197.48;;;9.51;60.26
74722;BME280;63470;49.826;6.740;2023-04-24T05:27:27;99195.39;;;9.55;60.19
74722;BME280;63470;49.826;6.740;2023-04-24T05:29:56;99195.50;;;9.57;60.17
74722;BME280;63470;49.826;6.740;2023-04-24T05:32:27;99198.33;;;9.58;60.19
74722;BME280;63470;49.826;6.740;2023-04-24T05:34:57;99199.42;;;9.60;60.22
74722;BME280;63470;49.826;6.740;2023-04-24T05:37:27;99199.97;;;9.58;60.35
74722;BME280;63470;49.826;6.740;2023-04-24T05:39:58;99202.95;;;9.55;60.52
74722;BME280;63470;49.826;6.740;2023-04-24T05:42:28;99209.06;;;9.55;60.63
74722;BME280;63470;49.826;6.740;2023-04-24T05:44:59;99208.70;;;9.59;60.62
74722;BME280;63470;49.826;6.740;2023-04-24T05:47:29;99200.66;;;10.16;60.09
74722;BME280;63470;49.826;6.740;2023-04-24T05:50:00;99200.84;;;11.02;60.04
74722;BME280;63470;49.826;6.740;2023-04-24T05:52:30;99212.05;;;11.72;59.73
74722;BME280;63470;49.826;6.740;2023-04-24T05:55:01;99208.17;;;12.53;59.45
74722;BME280;63470;49.826;6.740;2023-04-24T05:57:31;99217.72;;;12.25;60.03
74722;BME280;63470;49.826;6.740;2023-04-24T06:00:03;99223.55;;;11.74;60.69
74722;BME280;63470;49.826;6.740;2023-04-24T06:02:33;99222.25;;;11.39;61.05
74722;BME280;63470;49.826;6.740;2023-04-24T06:05:04;99232.20;;;11.14;61.24
74722;BME280;63470;49.826;6.740;2023-04-24T06:07:34;99234.48;;;10.97;61.30
74722;BME280;63470;49.826;6.740;2023-04-24T06:10:06;99243.84;;;10.82;61.30
74722;BME280;63470;49.826;6.740;2023-04-24T06:12:37;99248.34;;;10.68;61.38
74722;BME280;63470;49.826;6.740;2023-04-24T06:15:07;99248.41;;;10.56;61.42
74722;BME280;63470;49.826;6.740;2023-04-24T06:17:36;99251.56;;;10.47;61.33
74722;BME280;63470;49.826;6.740;2023-04-24T06:20:09;99256.51;;;10.36;61.28
74722;BME280;63470;49.826;6.740;2023-04-24T06:22:37;99258.24;;;10.23;61.28
74722;BME280;63470;49.826;6.740;2023-04-24T06:25:08;99258.66;;;10.15;61.31
74722;BME280;63470;49.826;6.740;2023-04-24T06:27:39;99264.89;;;10.10;61.31
74722;BME280;63470;49.826;6.740;2023-04-24T06:30:10;99259.30;;;10.06;61.28
74722;BME280;63470;49.826;6.740;2023-04-24T06:32:39;99259.39;;;10.03;61.18
74722;BME280;63470;49.826;6.740;2023-04-24T06:35:14;99250.77;;;10.11;61.08
74722;BME280;63470;49.826;6.740;2023-04-24T06:37:42;99249.79;;;10.28;60.83
74722;BME280;63470;49.826;6.740;2023-04-24T06:40:13;99246.14;;;10.49;60.50
74722;BME280;63470;49.826;6.740;2023-04-24T06:42:43;99253.62;;;10.58;60.29
74722;BME280;63470;49.826;6.740;2023-04-24T06:45:12;99254.19;;;10.56;60.35
74722;BME280;63470;49.826;6.740;2023-04-24T06:47:42;99253.56;;;10.52;60.42
74722;BME280;63470;49.826;6.740;2023-04-24T06:50:13;99253.88;;;10.50;60.50
74722;BME280;63470;49.826;6.740;2023-04-24T06:52:44;99259.14;;;10.52;60.48
74722;BME280;63470;49.826;6.740;2023-04-24T06:55:17;99257.69;;;10.49;60.42
74722;BME280;63470;49.826;6.740;2023-04-24T06:57:49;99257.42;;;10.47;60.44
74722;BME280;63470;49.826;6.740;2023-04-24T07:00:15;99257.91;;;10.48;60.48
74722;BME280;63470;49.826;6.740;2023-04-24T07:02:46;99259.80;;;10.45;60.50
74722;BME280;63470;49.826;6.740;2023-04-24T07:05:20;99263.77;;;10.39;60.59
74722;BME280;63470;49.826;6.740;2023-04-24T07:07:47;99267.03;;;10.35;60.68
74722;BME280;63470;49.826;6.740;2023-04-24T07:10:18;99265.30;;;10.38;60.62
74722;BME280;63470;49.826;6.740;2023-04-24T07:12:48;99269.41;;;10.33;60.64
74722;BME280;63470;49.826;6.740;2023-04-24T07:15:18;99274.05;;;10.27;60.71
74722;BME280;63470;49.826;6.740;2023-04-24T07:17:49;99280.12;;;10.24;60.77
74722;BME280;63470;49.826;6.740;2023-04-24T07:20:20;99281.53;;;10.25;60.68
74722;BME280;63470;49.826;6.740;2023-04-24T07:22:54;99280.59;;;10.28;60.71
74722;BME280;63470;49.826;6.740;2023-04-24T07:25:21;99282.95;;;10.35;60.63
74722;BME280;63470;49.826;6.740;2023-04-24T07:27:52;99276.69;;;10.50;60.54
74722;BME280;63470;49.826;6.740;2023-04-24T07:30:23;99286.28;;;10.71;60.32
74722;BME280;63470;49.826;6.740;2023-04-24T07:32:53;99281.16;;;10.81;60.04
74722;BME280;63470;49.826;6.740;2023-04-24T07:35:26;99287.16;;;10.80;60.02
74722;BME280;63470;49.826;6.740;2023-04-24T07:37:55;99286.44;;;10.84;60.04
74722;BME280;63470;49.826;6.740;2023-04-24T07:40:26;99292.66;;;11.06;59.92
74722;BME280;63470;49.826;6.740;2023-04-24T07:42:56;99294.00;;;11.30;59.72
74722;BME280;63470;49.826;6.740;2023-04-24T07:45:28;99297.61;;;11.40;59.60
74722;BME280;63470;49.826;6.740;2023-04-24T07:47:57;99297.38;;;11.42;59.56
74722;BME280;63470;49.826;6.740;2023-04-24T07:50:27;99307.18;;;11.35;59.69
74722;BME280;63470;49.826;6.740;2023-04-24T07:52:58;99311.44;;;11.49;59.67
74722;BME280;63470;49.826;6.740;2023-04-24T07:55:28;99305.92;;;11.65;59.50
74722;BME280;63470;49.826;6.740;2023-04-24T07:57:59;99310.96;;;11.73;59.42
74722;BME280;63470;49.826;6.740;2023-04-24T08:00:29;99314.92;;;11.73;59.53
74722;BME280;63470;49.826;6.740;2023-04-24T08:03:03;99318.58;;;11.72;59.62
74722;BME280;63470;49.826;6.740;2023-04-24T08:05:30;99317.66;;;11.72;59.61
74722;BME280;63470;49.826;6.740;2023-04-24T08:08:01;99314.23;;;11.83;59.59
74722;BME280;63470;49.826;6.740;2023-04-24T08:10:31;99328.64;;;11.90;59.50
74722;BME280;63470;49.826;6.740;2023-04-24T08:13:02;99331.50;;;11.81;59.59
74722;BME280;63470;49.826;6.740;2023-04-24T08:15:33;99329.12;;;11.68;59.70
74722;BME280;63470;49.826;6.740;2023-04-24T08:18:03;99332.45;;;11.48;59.93
74722;BME280;63470;49.826;6.740;2023-04-24T08:20:37;99338.08;;;11.31;60.21
74722;BME280;63470;49.826;6.740;2023-04-24T08:23:07;99337.59;;;11.27;60.33
74722;BME280;63470;49.826;6.740;2023-04-24T08:25:36;99334.48;;;11.41;60.28
74722;BME280;63470;49.826;6.740;2023-04-24T08:28:11;99336.98;;;11.71;60.06
74722;BME280;63470;49.826;6.740;2023-04-24T08:30:37;99346.64;;;11.96;59.82
74722;BME280;63470;49.826;6.740;2023-04-24T08:33:08;99341.41;;;12.31;59.55
74722;BME280;63470;49.826;6.740;2023-04-24T08:35:39;99342.16;;;12.38;59.57
74722;BME280;63470;49.826;6.740;2023-04-24T08:38:09;99347.86;;;12.33;59.68
74722;BME280;63470;49.826;6.740;2023-04-24T08:40:40;99352.16;;;12.27;60.00
74722;BME280;63470;49.826;6.740;2023-04-24T08:43:13;99353.84;;;12.19;59.98
74722;BME280;63470;49.826;6.740;2023-04-24T08:45:41;99353.93;;;12.19;59.94
74722;BME280;63470;49.826;6.740;2023-04-24T08:48:11;99354.29;;;12.22;59.80
74722;BME280;63470;49.826;6.740;2023-04-24T08:50:45;99364.78;;;12.30;59.72
74722;BME280;63470;49.826;6.740;2023-04-24T08:53:11;99371.39;;;12.36;59.54
74722;BME280;63470;49.826;6.740;2023-04-24T08:55:43;99367.84;;;12.18;59.65
74722;BME280;63470;49.826;6.740;2023-04-24T08:58:14;99368.23;;;11.96;59.96
74722;BME280;63470;49.826;6.740;2023-04-24T09:00:47;99375.45;;;11.91;60.15
74722;BME280;63470;49.826;6.740;2023-04-24T09:03:16;99377.98;;;12.12;59.99
74722;BME280;63470;49.826;6.740;2023-04-24T09:05:47;99377.42;;;12.56;59.55
74722;BME280;63470;49.826;6.740;2023-04-24T09:08:19;99378.03;;;12.93;59.16
74722;BME280;63470;49.826;6.740;2023-04-24T09:10:46;99387.00;;;13.11;58.93
74722;BME280;63470;49.826;6.740;2023-04-24T09:13:18;99385.38;;;13.04;59.02
74722;BME280;63470;49.826;6.740;2023-04-24T09:15:47;99394.77;;;12.90;59.33
74722;BME280;63470;49.826;6.740;2023-04-24T09:18:19;99400.21;;;12.78;59.63
74722;BME280;63470;49.826;6.740;2023-04-24T09:21:07;99401.73;;;12.64;59.82
74722;BME280;63470;49.826;6.740;2023-04-24T09:23:19;99404.47;;;12.42;60.08
74722;BME280;63470;49.826;6.740;2023-04-24T09:25:54;99409.27;;;12.35;60.02
74722;BME280;63470;49.826;6.740;2023-04-24T09:28:25;99406.34;;;12.47;59.94
74722;BME280;63470;49.826;6.740;2023-04-24T09:31:05;99414.59;;;12.70;59.81
74722;BME280;63470;49.826;6.740;2023-04-24T09:33:22;99411.44;;;13.26;59.56
74722;BME280;63470;49.826;6.740;2023-04-24T09:35:52;99413.14;;;13.81;59.10
74722;BME280;63470;49.826;6.740;2023-04-24T09:38:36;99412.59;;;14.76;58.57
74722;BME280;63470;49.826;6.740;2023-04-24T09:40:54;99411.45;;;15.61;58.18
74722;BME280;63470;49.826;6.740;2023-04-24T09:43:26;99420.12;;;15.77;58.37
74722;BME280;63470;49.826;6.740;2023-04-24T09:45:58;99410.42;;;16.44;57.97
74722;BME280;63470;49.826;6.740;2023-04-24T09:48:36;99419.12;;;16.59;58.05
74722;BME280;63470;49.826;6.740;2023-04-24T09:51:00;99417.69;;;16.22;58.82
74722;BME280;63470;49.826;6.740;2023-04-24T09:53:28;99417.36;;;15.81;59.45
74722;BME280;63470;49.826;6.740;2023-04-24T09:56:09;99416.98;;;15.48;59.87
74722;BME280;63470;49.826;6.740;2023-04-24T09:58:34;99417.66;;;15.09;59.97
74722;BME280;63470;49.826;6.740;2023-04-24T10:01:04;99418.62;;;14.50;60.45
74722;BME280;63470;49.826;6.740;2023-04-24T10:03:35;99423.42;;;13.96;60.91
74722;BME280;63470;49.826;6.740;2023-04-24T10:06:05;99431.56;;;13.42;61.29
74722;BME280;63470;49.826;6.740;2023-04-24T10:08:35;99444.21;;;12.99;61.66
74722;BME280;63470;49.826;6.740;2023-04-24T10:11:06;99448.69;;;12.68;61.72
74722;BME280;63470;49.826;6.740;2023-04-24T10:13:36;99448.10;;;12.43;61.85
74722;BME280;63470;49.826;6.740;2023-04-24T10:16:05;99455.11;;;12.44;61.73
74722;BME280;63470;49.826;6.740;2023-04-24T10:18:38;99455.26;;;12.76;61.29
74722;BME280;63470;49.826;6.740;2023-04-24T10:21:08;99455.90;;;13.12;60.77
74722;BME280;63470;49.826;6.740;2023-04-24T10:23:36;99459.84;;;13.39;60.34
74722;BME280;63470;49.826;6.740;2023-04-24T10:26:09;99457.92;;;13.36;60.15
74722;BME280;63470;49.826;6.740;2023-04-24T10:28:39;99460.14;;;13.18;60.28
74722;BME280;63470;49.826;6.740;2023-04-24T10:31:10;99463.91;;;13.04;60.46
74722;BME280;63470;49.826;6.740;2023-04-24T10:33:36;99463.94;;;12.94;60.71
74722;BME280;63470;49.826;6.740;2023-04-24T10:36:08;99475.25;;;12.83;60.80
74722;BME280;63470;49.826;6.740;2023-04-24T10:38:39;99474.67;;;12.86;60.75
74722;BME280;63470;49.826;6.740;2023-04-24T10:41:10;99479.48;;;13.06;60.51
74722;BME280;63470;49.826;6.740;2023-04-24T10:43:40;99478.69;;;13.29;60.23
74722;BME280;63470;49.826;6.740;2023-04-24T10:46:21;99479.21;;;13.43;60.04
74722;BME280;63470;49.826;6.740;2023-04-24T10:48:42;99487.62;;;13.52;59.93
74722;BME280;63470;49.826;6.740;2023-04-24T10:51:11;99492.16;;;13.61;59.89
74722;BME280;63470;49.826;6.740;2023-04-24T10:53:45;99492.50;;;13.69;59.86
74722;BME280;63470;49.826;6.740;2023-04-24T10:56:16;99493.27;;;13.78;59.74
74722;BME280;63470;49.826;6.740;2023-04-24T10:58:44;99496.09;;;13.88;59.62
74722;BME280;63470;49.826;6.740;2023-04-24T11:01:32;99496.39;;;13.87;59.73
74722;BME280;63470;49.826;6.740;2023-04-24T11:03:51;99503.27;;;14.01;59.66
74722;BME280;63470;49.826;6.740;2023-04-24T11:06:15;99503.79;;;14.28;59.39
74722;BME280;63470;49.826;6.740;2023-04-24T11:08:48;99505.25;;;14.67;58.92
74722;BME280;63470;49.826;6.740;2023-04-24T11:11:17;99503.88;;;14.96;58.49
74722;BME280;63470;49.826;6.740;2023-04-24T11:14:01;99504.26;;;15.04;58.39
74722;BME280;63470;49.826;6.740;2023-04-24T11:16:20;99507.82;;;15.06;58.52
74722;BME280;63470;49.826;6.740;2023-04-24T11:21:18;99507.73;;;14.69;59.07
74722;BME280;63470;49.826;6.740;2023-04-24T11:23:45;99526.41;;;14.30;59.67
74722;BME280;63470;49.826;6.740;2023-04-24T11:26:21;99524.85;;;13.93;60.11
74722;BME280;63470;49.826;6.740;2023-04-24T11:28:47;99526.89;;;13.63;60.42
74722;BME280;63470;49.826;6.740;2023-04-24T11:31:36;99526.21;;;13.53;60.58
74722;BME280;63470;49.826;6.740;2023-04-24T11:33:48;99530.66;;;13.68;60.24
74722;BME280;63470;49.826;6.740;2023-04-24T11:36:19;99536.32;;;13.88;59.78
74722;BME280;63470;49.826;6.740;2023-04-24T11:38:49;99536.78;;;13.93;59.65
74722;BME280;63470;49.826;6.740;2023-04-24T11:41:22;99530.30;;;13.87;59.64
74722;BME280;63470;49.826;6.740;2023-04-24T11:43:55;99532.83;;;13.72;59.80
74722;BME280;63470;49.826;6.740;2023-04-24T11:46:27;99541.34;;;13.58;60.02
74722;BME280;63470;49.826;6.740;2023-04-24T11:48:57;99536.43;;;13.46;60.11
74722;BME280;63470;49.826;6.740;2023-04-24T11:51:25;99543.36;;;13.31;60.13
74722;BME280;63470;49.826;6.740;2023-04-24T11:53:53;99542.20;;;13.14;60.24
74722;BME280;63470;49.826;6.740;2023-04-24T11:56:27;99537.98;;;13.03;60.34
74722;BME280;63470;49.826;6.740;2023-04-24T11:58:54;99541.78;;;13.00;60.33
74722;BME280;63470;49.826;6.740;2023-04-24T12:01:28;99541.28;;;13.10;60.15
74722;BME280;63470;49.826;6.740;2023-04-24T12:03:59;99541.91;;;13.22;59.99
74722;BME280;63470;49.826;6.740;2023-04-24T12:06:29;99543.59;;;13.34;59.90
74722;BME280;63470;49.826;6.740;2023-04-24T12:09:00;99541.74;;;13.45;59.85
74722;BME280;63470;49.826;6.740;2023-04-24T12:11:28;99550.75;;;13.57;59.69
74722;BME280;63470;49.826;6.740;2023-04-24T12:13:55;99546.55;;;13.65;59.55
74722;BME280;63470;49.826;6.740;2023-04-24T12:16:26;99547.74;;;13.76;59.46
74722;BME280;63470;49.826;6.740;2023-04-24T12:18:57;99550.50;;;13.92;59.30
74722;BME280;63470;49.826;6.740;2023-04-24T12:21:35;99556.53;;;14.13;59.11
74722;BME280;63470;49.826;6.740;2023-04-24T12:23:57;99550.64;;;14.40;58.78
74722;BME280;63470;49.826;6.740;2023-04-24T12:26:27;99549.41;;;14.70;58.51
74722;BME280;63470;49.826;6.740;2023-04-24T12:29:01;99550.23;;;15.01;58.28
74722;BME280;63470;49.826;6.740;2023-04-24T12:31:30;99546.63;;;15.07;58.37
74722;BME280;63470;49.826;6.740;2023-04-24T12:33:59;99545.02;;;14.97;58.57
74722;BME280;63470;49.826;6.740;2023-04-24T12:36:30;99551.84;;;14.83;58.87
74722;BME280;63470;49.826;6.740;2023-04-24T12:39:01;99554.47;;;14.79;59.03
74722;BME280;63470;49.826;6.740;2023-04-24T12:41:32;99550.23;;;14.98;58.88
74722;BME280;63470;49.826;6.740;2023-04-24T12:44:10;99549.21;;;15.40;58.32
74722;BME280;63470;49.826;6.740;2023-04-24T12:46:32;99552.68;;;15.64;57.93
74722;BME280;63470;49.826;6.740;2023-04-24T12:49:08;99558.12;;;15.65;57.88
74722;BME280;63470;49.826;6.740;2023-04-24T12:51:38;99555.93;;;15.59;58.08
74722;BME280;63470;49.826;6.740;2023-04-24T12:54:07;99554.88;;;15.54;58.28
74722;BME280;63470;49.826;6.740;2023-04-24T12:56:39;99559.79;;;15.51;58.41
74722;BME280;63470;49.826;6.740;2023-04-24T12:59:05;99557.14;;;15.52;58.52
74722;BME280;63470;49.826;6.740;2023-04-24T13:01:38;99556.83;;;15.48;58.61
74722;BME280;63470;49.826;6.740;2023-04-24T13:04:05;99561.25;;;15.46;58.71
74722;BME280;63470;49.826;6.740;2023-04-24T13:06:38;99560.12;;;15.44;58.68
74722;BME280;63470;49.826;6.740;2023-04-24T13:09:07;99555.59;;;15.45;58.68
74722;BME280;63470;49.826;6.740;2023-04-24T13:11:38;99562.04;;;15.53;58.56
74722;BME280;63470;49.826;6.740;2023-04-24T13:14:10;99566.84;;;15.57;58.48
74722;BME280;63470;49.826;6.740;2023-04-24T13:16:39;99561.92;;;15.62;58.48
74722;BME280;63470;49.826;6.740;2023-04-24T13:19:17;99561.84;;;15.76;58.41
74722;BME280;63470;49.826;6.740;2023-04-24T13:21:40;99560.66;;;16.19;58.04
74722;BME280;63470;49.826;6.740;2023-04-24T13:24:10;99558.50;;;16.92;57.38